createdAt,value
2022-08-29T00:01:12.925Z,2.83
2022-08-29T00:03:40.907Z,2.47
2022-08-29T00:10:58.708Z,3.42
2022-08-29T00:13:25.469Z,2.90
2022-08-29T00:15:52.144Z,3.35
2022-08-29T00:18:19.677Z,3.42
2022-08-29T00:20:47.159Z,3.45
2022-08-29T00:23:13.899Z,3.30
2022-08-29T00:25:40.599Z,2.75
2022-08-29T00:28:07.346Z,3.20
2022-08-29T00:30:34.984Z,2.85
2022-08-29T00:33:01.873Z,2.97
2022-08-29T00:35:30.299Z,2.97
2022-08-29T00:37:58.220Z,2.65
2022-08-29T00:40:26.886Z,2.80
2022-08-29T00:42:53.968Z,2.85
2022-08-29T00:45:20.707Z,2.65
2022-08-29T00:48:08.096Z,2.90
2022-08-29T01:00:29.043Z,3.63
2022-08-29T01:02:56.108Z,2.90
2022-08-29T01:07:48.704Z,2.97
2022-08-29T01:15:30.635Z,3.05
2022-08-29T01:17:58.479Z,2.65
2022-08-29T01:20:32.145Z,2.65
2022-08-29T01:23:10.230Z,2.90
2022-08-29T01:25:39.529Z,2.50
2022-08-29T01:28:18.187Z,2.78
2022-08-29T01:31:03.815Z,2.85
2022-08-29T01:38:38.634Z,2.45
2022-08-29T01:41:05.868Z,2.75
2022-08-29T01:43:37.975Z,2.47
2022-08-29T01:46:04.728Z,2.70
2022-08-29T02:15:14.345Z,2.97
2022-08-29T02:17:41.060Z,3.17
2022-08-29T02:20:12.167Z,3.03
2022-08-29T02:22:39.537Z,2.75
2022-08-29T02:27:52.466Z,2.78
2022-08-29T02:30:19.742Z,2.80
2022-08-29T02:32:47.103Z,2.53
2022-08-29T02:35:15.174Z,2.97
2022-08-29T02:37:43.112Z,3.28
2022-08-29T02:42:35.630Z,3.05
2022-08-29T02:45:02.786Z,3.05
2022-08-29T02:47:29.453Z,3.28
2022-08-29T02:49:56.138Z,3.72
2022-08-29T02:52:22.853Z,3.72
2022-08-29T02:57:15.214Z,3.78
2022-08-29T02:59:41.894Z,3.35
2022-08-29T03:02:08.613Z,3.42
2022-08-29T03:04:35.316Z,3.80
2022-08-29T03:07:01.959Z,3.47
2022-08-29T03:09:28.600Z,3.53
2022-08-29T03:11:56.634Z,3.60
2022-08-29T03:14:24.094Z,4.20
2022-08-29T03:16:50.814Z,3.40
2022-08-29T03:19:17.950Z,3.80
2022-08-29T03:21:45.367Z,3.80
2022-08-29T03:24:12.047Z,3.60
2022-08-29T03:26:38.824Z,3.47
2022-08-29T03:29:05.519Z,3.60
2022-08-29T03:31:32.652Z,3.83
2022-08-29T03:33:59.739Z,3.20
2022-08-29T03:36:27.169Z,3.58
2022-08-29T03:41:21.394Z,3.80
2022-08-29T03:43:48.002Z,3.90
2022-08-29T03:46:14.705Z,3.65
2022-08-29T03:53:33.319Z,2.88
2022-08-29T03:58:25.626Z,3.67
2022-08-29T04:00:52.393Z,3.88
2022-08-29T04:05:45.645Z,4.45
2022-08-29T04:08:18.155Z,4.93
2022-08-29T04:15:37.547Z,4.28
2022-08-29T04:18:07.028Z,5.30
2022-08-29T04:20:36.531Z,4.53
2022-08-29T04:23:03.656Z,4.72
2022-08-29T04:32:54.395Z,4.35
2022-08-29T04:35:21.114Z,4.30
2022-08-29T04:37:48.066Z,5.20
2022-08-29T04:40:16.215Z,4.57
2022-08-29T04:42:43.318Z,4.40
2022-08-29T04:45:14.409Z,4.32
2022-08-29T04:47:41.742Z,3.95
2022-08-29T04:50:10.179Z,4.20
2022-08-29T04:52:37.113Z,4.40
2022-08-29T04:59:56.306Z,3.72
2022-08-29T05:02:23.980Z,4.30
2022-08-29T05:07:21.143Z,4.18
2022-08-29T05:09:49.362Z,4.90
2022-08-29T05:12:16.542Z,4.88
2022-08-29T05:14:43.367Z,4.40
2022-08-29T05:17:10.039Z,5.22
2022-08-29T05:19:37.717Z,6.22
2022-08-29T05:22:13.240Z,7.20
2022-08-29T05:24:41.030Z,7.07
2022-08-29T05:27:12.541Z,6.78
2022-08-29T05:29:40.336Z,5.93
2022-08-29T05:32:08.638Z,5.07
2022-08-29T05:34:36.037Z,4.45
2022-08-29T05:42:17.219Z,3.75
2022-08-29T05:44:44.299Z,3.40
2022-08-29T05:47:12.406Z,3.35
2022-08-29T05:49:40.112Z,4.03
2022-08-29T05:54:34.473Z,4.00
2022-08-29T05:57:01.279Z,3.28
2022-08-29T06:04:19.164Z,3.00
2022-08-29T06:09:12.160Z,3.03
2022-08-29T06:11:39.146Z,3.03
2022-08-29T06:14:05.782Z,3.35
2022-08-29T06:16:32.760Z,2.53
2022-08-29T06:19:00.136Z,3.17
2022-08-29T06:21:26.813Z,2.25
2022-08-29T06:26:19.887Z,2.42
2022-08-29T06:28:46.979Z,2.65
2022-08-29T06:31:28.138Z,2.30
2022-08-29T06:33:55.954Z,2.40
2022-08-29T06:36:24.727Z,2.25
2022-08-29T06:38:51.918Z,2.92
2022-08-29T06:41:19.156Z,2.22
2022-08-29T06:43:45.851Z,2.50
2022-08-29T06:48:48.516Z,2.65
2022-08-29T06:51:15.261Z,2.22
2022-08-29T06:53:42.447Z,2.05
2022-08-29T06:56:11.487Z,2.38
2022-08-29T06:58:38.788Z,2.33
2022-08-29T07:01:08.242Z,2.03
2022-08-29T07:06:01.948Z,2.75
2022-08-29T07:08:30.099Z,2.30
2022-08-29T07:10:56.870Z,2.05
2022-08-29T07:13:23.714Z,2.08
2022-08-29T07:15:50.534Z,2.28
2022-08-29T07:18:17.431Z,2.42
2022-08-29T07:20:55.155Z,2.55
2022-08-29T07:23:22.102Z,2.10
2022-08-29T07:25:48.834Z,2.00
2022-08-29T07:28:15.929Z,2.33
2022-08-29T07:30:43.580Z,2.25
2022-08-29T07:33:10.439Z,1.65
2022-08-29T07:35:37.229Z,2.10
2022-08-29T07:38:04.098Z,1.90
2022-08-29T07:40:30.886Z,2.25
2022-08-29T07:42:57.646Z,2.17
2022-08-29T07:45:24.475Z,2.03
2022-08-29T07:47:51.498Z,2.10
2022-08-29T07:50:18.297Z,2.28
2022-08-29T07:52:44.954Z,2.33
2022-08-29T07:55:12.094Z,2.30
2022-08-29T07:57:39.873Z,2.75
2022-08-29T08:00:09.998Z,1.98
2022-08-29T08:02:39.024Z,2.28
2022-08-29T08:05:06.701Z,2.33
2022-08-29T08:07:35.230Z,2.30
2022-08-29T08:10:02.447Z,2.83
2022-08-29T08:12:29.454Z,2.28
2022-08-29T08:17:23.528Z,2.35
2022-08-29T08:19:50.245Z,2.10
2022-08-29T08:22:16.913Z,2.42
2022-08-29T08:24:46.594Z,2.28
2022-08-29T09:44:39.638Z,2.45
2022-08-29T09:47:35.813Z,2.30
2022-08-29T09:50:02.545Z,2.50
2022-08-29T09:52:32.995Z,2.65
2022-08-29T09:55:16.241Z,2.25
2022-08-29T09:57:49.231Z,2.55
2022-08-29T10:00:18.324Z,2.22
2022-08-29T10:02:45.169Z,2.78
2022-08-29T10:07:55.766Z,2.50
2022-08-29T10:10:22.403Z,2.45
2022-08-29T10:12:57.456Z,2.30
2022-08-29T10:15:49.875Z,2.55
2022-08-29T10:25:53.069Z,2.92
2022-08-29T10:28:19.766Z,2.60
2022-08-29T10:30:46.420Z,2.20
2022-08-29T10:41:11.114Z,2.75
2022-08-29T10:43:40.308Z,2.45
2022-08-29T10:48:37.823Z,2.47
2022-08-29T10:51:04.559Z,2.50
2022-08-29T10:53:34.938Z,2.72
2022-08-29T10:56:25.446Z,2.13
2022-08-29T10:59:00.554Z,2.55
2022-08-29T11:01:36.195Z,2.00
2022-08-29T11:04:06.126Z,2.42
2022-08-29T11:14:25.021Z,2.17
2022-08-29T11:16:53.923Z,2.50
2022-08-29T11:26:59.104Z,2.45
2022-08-29T11:29:33.383Z,2.80
2022-08-29T11:32:06.168Z,2.42
2022-08-29T11:34:52.843Z,2.53
2022-08-29T11:47:35.699Z,2.80
2022-08-29T12:01:25.256Z,2.70
2022-08-29T12:03:55.172Z,2.45
2022-08-29T12:09:14.155Z,2.83
2022-08-29T12:14:37.685Z,2.20
2022-08-29T12:17:08.191Z,2.60
2022-08-29T12:19:52.299Z,2.78
2022-08-29T12:22:37.771Z,2.40
2022-08-29T12:25:23.346Z,2.38
2022-08-29T12:28:03.979Z,2.60
2022-08-29T12:30:38.948Z,2.90
2022-08-29T12:33:26.942Z,2.80
2022-08-29T12:36:03.085Z,2.70
2022-08-29T12:38:42.133Z,2.40
2022-08-29T12:41:27.633Z,3.13
2022-08-29T12:43:55.834Z,2.22
2022-08-29T12:46:34.164Z,2.85
2022-08-29T12:51:38.821Z,1.85
2022-08-29T12:54:06.230Z,3.38
2022-08-29T12:56:33.369Z,2.55
2022-08-29T12:59:01.251Z,2.35
2022-08-29T13:01:30.905Z,2.03
2022-08-29T13:04:02.335Z,2.88
2022-08-29T13:06:29.224Z,2.30
2022-08-29T13:08:55.904Z,1.95
2022-08-29T13:19:10.118Z,2.80
2022-08-29T13:21:37.787Z,2.53
2022-08-29T13:24:12.136Z,2.40
2022-08-29T13:32:18.536Z,2.22
2022-08-29T13:35:01.641Z,3.08
2022-08-29T13:37:31.185Z,2.58
2022-08-29T13:40:17.771Z,2.47
2022-08-29T13:42:47.366Z,2.45
2022-08-29T13:45:16.049Z,2.50
2022-08-29T13:55:26.603Z,2.35
2022-08-29T13:57:54.427Z,2.47
2022-08-29T14:00:31.953Z,2.70
2022-08-29T14:07:53.576Z,2.90
2022-08-29T14:15:17.998Z,3.28
2022-08-29T14:17:45.837Z,2.50
2022-08-29T14:20:13.007Z,2.97
2022-08-29T14:22:40.506Z,2.28
2022-08-29T14:25:08.307Z,2.75
2022-08-29T14:30:00.888Z,2.50
2022-08-29T14:32:27.584Z,2.17
2022-08-29T14:34:54.264Z,2.13
2022-08-29T14:37:21.354Z,2.80
2022-08-29T14:39:50.049Z,2.17
2022-08-29T14:47:08.633Z,2.40
2022-08-29T14:52:00.802Z,3.25
2022-08-29T14:54:28.702Z,2.35
2022-08-29T15:01:52.968Z,3.30
2022-08-29T15:04:25.168Z,2.55
2022-08-29T15:07:03.574Z,2.53
2022-08-29T15:09:30.531Z,2.17
2022-08-29T15:11:58.994Z,2.95
2022-08-29T15:16:51.499Z,2.63
2022-08-29T15:29:23.278Z,2.10
2022-08-29T15:31:51.848Z,2.10
2022-08-29T15:34:18.855Z,2.45
2022-08-29T15:39:13.226Z,2.38
2022-08-29T15:41:39.986Z,2.55
2022-08-29T15:48:58.295Z,3.30
2022-08-29T15:51:25.046Z,3.22
2022-08-29T15:53:54.570Z,2.78
2022-08-29T15:56:21.214Z,3.67
2022-08-29T15:58:49.546Z,3.00
2022-08-29T16:01:17.617Z,2.67
2022-08-29T16:03:44.307Z,2.95
2022-08-29T16:11:03.868Z,2.50
2022-08-29T16:18:24.481Z,3.08
2022-08-29T16:20:51.295Z,3.15
2022-08-29T16:23:23.545Z,3.08
2022-08-29T16:25:50.197Z,2.50
2022-08-29T16:28:17.360Z,2.53
2022-08-29T16:30:46.037Z,3.72
2022-08-29T16:33:13.597Z,2.67
2022-08-29T16:35:43.681Z,2.95
2022-08-29T16:38:11.123Z,2.15
2022-08-29T16:40:38.029Z,3.22
2022-08-29T16:45:31.163Z,2.15
2022-08-29T16:47:58.130Z,2.72
2022-08-29T16:50:25.508Z,2.97
2022-08-29T16:52:52.349Z,2.08
2022-08-29T16:55:19.068Z,2.42
2022-08-29T17:07:50.174Z,2.30
2022-08-29T17:10:16.906Z,3.13
2022-08-29T17:15:09.071Z,2.70
2022-08-29T17:17:35.857Z,2.88
2022-08-29T17:22:28.176Z,3.63
2022-08-29T17:24:57.764Z,3.45
2022-08-29T17:27:29.946Z,3.40
2022-08-29T17:29:57.047Z,2.63
2022-08-29T17:32:23.727Z,2.85
2022-08-29T17:46:58.632Z,2.85
2022-08-29T17:49:27.691Z,2.90
2022-08-29T17:51:54.798Z,2.58
2022-08-29T17:54:22.954Z,3.50
2022-08-29T17:56:57.019Z,3.53
2022-08-29T17:59:27.285Z,3.60
2022-08-29T18:01:54.739Z,3.90
2022-08-29T18:04:22.362Z,3.45
2022-08-29T18:06:49.208Z,4.07
2022-08-29T18:09:15.868Z,3.47
2022-08-29T18:11:47.847Z,3.17
2022-08-29T18:14:14.746Z,3.72
2022-08-29T18:16:41.531Z,2.80
2022-08-29T18:19:08.507Z,3.45
2022-08-29T18:21:35.703Z,3.08
2022-08-29T18:24:03.344Z,5.13
2022-08-29T18:28:55.973Z,3.60
2022-08-29T18:31:23.709Z,3.22
2022-08-29T18:45:59.512Z,2.80
2022-08-29T18:48:29.499Z,2.80
2022-08-29T18:53:24.489Z,3.72
2022-08-29T18:55:54.311Z,3.30
2022-08-29T19:00:49.031Z,3.70
2022-08-29T19:03:16.385Z,3.28
2022-08-29T19:10:38.467Z,4.18
2022-08-29T19:13:08.178Z,3.83
2022-08-29T19:15:37.738Z,3.83
2022-08-29T19:23:19.855Z,3.47
2022-08-29T19:25:47.159Z,3.00
2022-08-29T19:28:14.444Z,3.60
2022-08-29T19:36:07.340Z,3.92
2022-08-29T19:38:34.343Z,4.05
2022-08-29T19:41:01.586Z,4.78
2022-08-29T19:50:51.742Z,3.55
2022-08-29T19:58:13.451Z,3.92
2022-08-29T20:00:41.865Z,4.00
2022-08-29T20:03:08.692Z,3.85
2022-08-29T20:05:35.467Z,3.85
2022-08-29T20:08:03.334Z,4.13
2022-08-29T20:10:31.056Z,3.90
2022-08-29T20:12:58.387Z,3.38
2022-08-29T20:25:16.508Z,3.92
2022-08-29T20:27:43.412Z,3.72
2022-08-29T20:32:38.620Z,3.70
2022-08-29T20:35:05.655Z,3.35
2022-08-29T20:37:32.328Z,3.65
2022-08-29T20:39:59.877Z,3.80
2022-08-29T20:42:27.287Z,3.50
2022-08-29T20:47:23.904Z,3.20
2022-08-29T20:49:54.916Z,3.90
2022-08-29T20:52:22.205Z,3.80
2022-08-29T20:54:51.328Z,4.28
2022-08-29T20:57:22.593Z,2.90
2022-08-29T21:04:58.657Z,3.53
2022-08-29T21:07:25.938Z,4.13
2022-08-29T21:09:52.649Z,4.25
2022-08-29T21:14:46.881Z,3.88
2022-08-29T21:17:15.441Z,4.38
2022-08-29T21:29:25.175Z,4.43
2022-08-29T21:31:52.398Z,4.35
2022-08-29T21:34:22.215Z,3.95
2022-08-29T21:39:19.643Z,3.78
2022-08-29T21:41:55.562Z,4.32
2022-08-29T21:49:18.187Z,4.03
2022-08-29T21:51:46.330Z,4.63
2022-08-29T21:54:17.464Z,4.35
2022-08-29T21:56:44.677Z,3.78
2022-08-29T21:59:12.110Z,4.22
2022-08-29T22:01:39.611Z,4.32
2022-08-29T22:04:07.975Z,4.00
2022-08-29T22:09:01.827Z,4.78
2022-08-29T22:11:37.441Z,4.13
2022-08-29T22:16:31.754Z,4.15
2022-08-29T22:19:00.118Z,3.65
2022-08-29T22:23:56.522Z,3.78
2022-08-29T22:26:26.661Z,3.88
2022-08-29T22:28:53.261Z,3.90
2022-08-29T22:33:46.123Z,4.10
2022-08-29T22:36:24.741Z,3.97
2022-08-29T22:38:56.632Z,3.70
2022-08-29T22:41:23.986Z,4.20
2022-08-29T22:44:04.727Z,4.18
2022-08-29T22:49:03.358Z,4.70
2022-08-29T22:51:30.212Z,3.60
2022-08-29T22:54:15.477Z,3.75
2022-08-29T22:56:43.629Z,3.80
2022-08-29T22:59:10.941Z,4.03
2022-08-29T23:06:33.386Z,3.80
2022-08-29T23:09:00.138Z,3.83
2022-08-29T23:13:54.641Z,3.70
2022-08-29T23:16:22.002Z,3.78
2022-08-29T23:21:14.170Z,3.42
2022-08-29T23:23:41.082Z,3.72
2022-08-29T23:28:34.262Z,4.10
2022-08-29T23:31:01.826Z,3.78
2022-08-29T23:40:46.177Z,3.60
2022-08-29T23:43:13.014Z,3.65
2022-08-29T23:45:39.758Z,3.53
2022-08-29T23:48:06.393Z,4.15
2022-08-29T23:50:33.039Z,3.72
2022-08-29T23:52:59.667Z,3.55
2022-08-29T23:57:51.758Z,4.00
